sensor_id;sensor_type;location;lat;lon;timestamp;temperature;humidity
47779;DHT22;33538;48.432;11.350;2024-02-21T00:00:54;6.50;93.60
47779;DHT22;33538;48.432;11.350;2024-02-21T00:03:21;6.60;93.50
47779;DHT22;33538;48.432;11.350;2024-02-21T00:05:48;6.50;93.50
47779;DHT22;33538;48.432;11.350;2024-02-21T00:08:15;6.60;93.60
47779;DHT22;33538;48.432;11.350;2024-02-21T00:10:43;6.50;93.50
47779;DHT22;33538;48.432;11.350;2024-02-21T00:13:10;6.60;93.40
47779;DHT22;33538;48.432;11.350;2024-02-21T00:15:37;6.50;93.50
47779;DHT22;33538;48.432;11.350;2024-02-21T00:18:04;6.60;93.50
47779;DHT22;33538;48.432;11.350;2024-02-21T00:20:31;6.60;93.50
47779;DHT22;33538;48.432;11.350;2024-02-21T00:22:58;6.60;93.40
47779;DHT22;33538;48.432;11.350;2024-02-21T00:25:25;6.60;93.40
47779;DHT22;33538;48.432;11.350;2024-02-21T00:27:53;6.60;93.40
47779;DHT22;33538;48.432;11.350;2024-02-21T00:30:20;6.60;93.40
47779;DHT22;33538;48.432;11.350;2024-02-21T00:32:47;6.60;93.40
47779;DHT22;33538;48.432;11.350;2024-02-21T00:35:14;6.60;93.40
47779;DHT22;33538;48.432;11.350;2024-02-21T00:37:41;6.60;93.80
47779;DHT22;33538;48.432;11.350;2024-02-21T00:40:09;6.60;93.30
47779;DHT22;33538;48.432;11.350;2024-02-21T00:42:36;6.60;93.40
47779;DHT22;33538;48.432;11.350;2024-02-21T00:45:05;6.60;93.40
47779;DHT22;33538;48.432;11.350;2024-02-21T00:47:32;6.60;93.40
47779;DHT22;33538;48.432;11.350;2024-02-21T00:49:59;6.60;93.30
47779;DHT22;33538;48.432;11.350;2024-02-21T00:52:26;6.60;93.40
47779;DHT22;33538;48.432;11.350;2024-02-21T00:54:53;6.50;93.30
47779;DHT22;33538;48.432;11.350;2024-02-21T00:57:21;6.50;93.40
47779;DHT22;33538;48.432;11.350;2024-02-21T00:59:47;6.50;93.30
47779;DHT22;33538;48.432;11.350;2024-02-21T01:02:16;6.60;93.40
47779;DHT22;33538;48.432;11.350;2024-02-21T01:04:43;6.60;93.30
47779;DHT22;33538;48.432;11.350;2024-02-21T01:07:09;6.50;93.30
47779;DHT22;33538;48.432;11.350;2024-02-21T01:09:36;6.50;93.40
47779;DHT22;33538;48.432;11.350;2024-02-21T01:12:03;6.50;93.40
47779;DHT22;33538;48.432;11.350;2024-02-21T01:14:30;6.50;93.50
47779;DHT22;33538;48.432;11.350;2024-02-21T01:16:57;6.60;93.40
47779;DHT22;33538;48.432;11.350;2024-02-21T01:19:25;6.50;93.40
47779;DHT22;33538;48.432;11.350;2024-02-21T01:21:52;6.50;93.50
47779;DHT22;33538;48.432;11.350;2024-02-21T01:24:19;6.50;93.90
47779;DHT22;33538;48.432;11.350;2024-02-21T01:26:46;6.50;93.60
47779;DHT22;33538;48.432;11.350;2024-02-21T01:29:13;6.50;93.60
47779;DHT22;33538;48.432;11.350;2024-02-21T01:31:39;6.50;93.60
47779;DHT22;33538;48.432;11.350;2024-02-21T01:34:06;6.50;93.50
47779;DHT22;33538;48.432;11.350;2024-02-21T01:36:34;6.50;93.60
47779;DHT22;33538;48.432;11.350;2024-02-21T01:39:01;6.50;93.70
47779;DHT22;33538;48.432;11.350;2024-02-21T01:41:29;6.50;93.70
47779;DHT22;33538;48.432;11.350;2024-02-21T01:43:56;6.50;93.80
47779;DHT22;33538;48.432;11.350;2024-02-21T01:46:23;6.50;93.80
47779;DHT22;33538;48.432;11.350;2024-02-21T01:48:50;6.50;93.80
47779;DHT22;33538;48.432;11.350;2024-02-21T01:51:17;6.40;93.90
47779;DHT22;33538;48.432;11.350;2024-02-21T01:53:46;6.50;93.90
47779;DHT22;33538;48.432;11.350;2024-02-21T01:56:13;6.50;93.70
47779;DHT22;33538;48.432;11.350;2024-02-21T01:58:42;6.50;93.80
47779;DHT22;33538;48.432;11.350;2024-02-21T02:01:09;6.50;93.80
47779;DHT22;33538;48.432;11.350;2024-02-21T02:03:37;6.50;93.60
47779;DHT22;33538;48.432;11.350;2024-02-21T02:06:05;6.50;93.70
47779;DHT22;33538;48.432;11.350;2024-02-21T02:08:38;6.50;93.60
47779;DHT22;33538;48.432;11.350;2024-02-21T02:11:09;6.50;93.50
47779;DHT22;33538;48.432;11.350;2024-02-21T02:13:35;6.60;93.50
47779;DHT22;33538;48.432;11.350;2024-02-21T02:16:03;6.50;93.60
47779;DHT22;33538;48.432;11.350;2024-02-21T02:18:30;6.50;93.70
47779;DHT22;33538;48.432;11.350;2024-02-21T02:20:57;6.50;93.70
47779;DHT22;33538;48.432;11.350;2024-02-21T02:23:26;6.50;93.80
47779;DHT22;33538;48.432;11.350;2024-02-21T02:25:53;6.50;93.90
47779;DHT22;33538;48.432;11.350;2024-02-21T02:28:20;6.50;93.90
47779;DHT22;33538;48.432;11.350;2024-02-21T02:30:48;6.50;93.90
47779;DHT22;33538;48.432;11.350;2024-02-21T02:33:15;6.50;94.40
47779;DHT22;33538;48.432;11.350;2024-02-21T02:35:42;6.50;94.10
47779;DHT22;33538;48.432;11.350;2024-02-21T02:38:09;6.50;93.90
47779;DHT22;33538;48.432;11.350;2024-02-21T02:40:38;6.50;94.00
47779;DHT22;33538;48.432;11.350;2024-02-21T02:43:05;6.50;94.00
47779;DHT22;33538;48.432;11.350;2024-02-21T02:45:32;6.50;94.00
47779;DHT22;33538;48.432;11.350;2024-02-21T02:47:59;6.50;94.00
47779;DHT22;33538;48.432;11.350;2024-02-21T02:50:27;6.50;94.00
47779;DHT22;33538;48.432;11.350;2024-02-21T02:52:55;6.50;93.90
47779;DHT22;33538;48.432;11.350;2024-02-21T02:55:22;6.50;93.90
47779;DHT22;33538;48.432;11.350;2024-02-21T02:57:51;6.40;94.00
47779;DHT22;33538;48.432;11.350;2024-02-21T03:00:18;6.40;94.10
47779;DHT22;33538;48.432;11.350;2024-02-21T03:02:46;6.40;94.10
47779;DHT22;33538;48.432;11.350;2024-02-21T03:05:13;6.40;94.10
47779;DHT22;33538;48.432;11.350;2024-02-21T03:07:41;6.40;94.10
47779;DHT22;33538;48.432;11.350;2024-02-21T03:10:08;6.40;94.20
47779;DHT22;33538;48.432;11.350;2024-02-21T03:12:35;6.40;94.20
47779;DHT22;33538;48.432;11.350;2024-02-21T03:15:04;6.40;94.20
47779;DHT22;33538;48.432;11.350;2024-02-21T03:17:32;6.40;94.20
47779;DHT22;33538;48.432;11.350;2024-02-21T03:19:59;6.30;94.20
47779;DHT22;33538;48.432;11.350;2024-02-21T03:22:26;6.40;94.30
47779;DHT22;33538;48.432;11.350;2024-02-21T03:24:53;6.40;94.30
47779;DHT22;33538;48.432;11.350;2024-02-21T03:27:20;6.30;94.20
47779;DHT22;33538;48.432;11.350;2024-02-21T03:29:47;6.30;94.10
47779;DHT22;33538;48.432;11.350;2024-02-21T03:32:15;6.30;94.10
47779;DHT22;33538;48.432;11.350;2024-02-21T03:34:42;6.30;94.20
47779;DHT22;33538;48.432;11.350;2024-02-21T03:37:08;6.30;94.30
47779;DHT22;33538;48.432;11.350;2024-02-21T03:39:35;6.30;94.30
47779;DHT22;33538;48.432;11.350;2024-02-21T03:42:02;6.30;94.20
47779;DHT22;33538;48.432;11.350;2024-02-21T03:44:29;6.30;94.30
47779;DHT22;33538;48.432;11.350;2024-02-21T03:46:56;6.20;94.50
47779;DHT22;33538;48.432;11.350;2024-02-21T03:49:24;6.20;94.60
47779;DHT22;33538;48.432;11.350;2024-02-21T03:51:51;6.20;94.90
47779;DHT22;33538;48.432;11.350;2024-02-21T03:54:18;6.20;94.90
47779;DHT22;33538;48.432;11.350;2024-02-21T03:56:45;6.20;94.70
47779;DHT22;33538;48.432;11.350;2024-02-21T03:59:11;6.20;94.60
47779;DHT22;33538;48.432;11.350;2024-02-21T04:01:38;6.30;94.60
47779;DHT22;33538;48.432;11.350;2024-02-21T04:04:05;6.20;94.50
47779;DHT22;33538;48.432;11.350;2024-02-21T04:06:33;6.20;94.70
47779;DHT22;33538;48.432;11.350;2024-02-21T04:09:00;6.20;94.90
47779;DHT22;33538;48.432;11.350;2024-02-21T04:11:27;6.10;95.10
47779;DHT22;33538;48.432;11.350;2024-02-21T04:13:54;6.10;95.10
47779;DHT22;33538;48.432;11.350;2024-02-21T04:16:21;6.10;95.10
47779;DHT22;33538;48.432;11.350;2024-02-21T04:18:48;6.10;95.10
47779;DHT22;33538;48.432;11.350;2024-02-21T04:21:15;6.20;94.90
47779;DHT22;33538;48.432;11.350;2024-02-21T04:23:43;6.20;94.80
47779;DHT22;33538;48.432;11.350;2024-02-21T04:26:10;6.20;94.60
47779;DHT22;33538;48.432;11.350;2024-02-21T04:28:37;6.20;94.60
47779;DHT22;33538;48.432;11.350;2024-02-21T04:31:04;6.20;94.70
47779;DHT22;33538;48.432;11.350;2024-02-21T04:33:31;6.10;94.90
47779;DHT22;33538;48.432;11.350;2024-02-21T04:35:57;6.10;95.00
47779;DHT22;33538;48.432;11.350;2024-02-21T04:38:24;6.10;94.90
47779;DHT22;33538;48.432;11.350;2024-02-21T04:40:52;6.10;94.90
47779;DHT22;33538;48.432;11.350;2024-02-21T04:43:19;6.20;94.90
47779;DHT22;33538;48.432;11.350;2024-02-21T04:45:46;6.20;94.80
47779;DHT22;33538;48.432;11.350;2024-02-21T04:48:13;6.20;94.60
47779;DHT22;33538;48.432;11.350;2024-02-21T04:50:40;6.20;94.60
47779;DHT22;33538;48.432;11.350;2024-02-21T04:53:07;6.20;94.50
47779;DHT22;33538;48.432;11.350;2024-02-21T04:55:34;6.20;94.40
47779;DHT22;33538;48.432;11.350;2024-02-21T04:58:02;6.20;94.40
47779;DHT22;33538;48.432;11.350;2024-02-21T05:00:29;6.20;94.40
47779;DHT22;33538;48.432;11.350;2024-02-21T05:02:56;6.20;94.30
47779;DHT22;33538;48.432;11.350;2024-02-21T05:05:22;6.20;94.30
47779;DHT22;33538;48.432;11.350;2024-02-21T05:07:49;6.20;94.20
47779;DHT22;33538;48.432;11.350;2024-02-21T05:10:16;6.20;94.20
47779;DHT22;33538;48.432;11.350;2024-02-21T05:12:46;6.20;94.20
47779;DHT22;33538;48.432;11.350;2024-02-21T05:15:14;6.20;94.30
47779;DHT22;33538;48.432;11.350;2024-02-21T05:17:41;6.20;94.30
47779;DHT22;33538;48.432;11.350;2024-02-21T05:20:09;6.20;94.30
47779;DHT22;33538;48.432;11.350;2024-02-21T05:22:36;6.20;94.20
47779;DHT22;33538;48.432;11.350;2024-02-21T05:25:03;6.20;94.20
47779;DHT22;33538;48.432;11.350;2024-02-21T05:27:30;6.20;94.20
47779;DHT22;33538;48.432;11.350;2024-02-21T05:29:57;6.20;94.20
47779;DHT22;33538;48.432;11.350;2024-02-21T05:32:25;6.10;94.30
47779;DHT22;33538;48.432;11.350;2024-02-21T05:34:52;6.00;94.60
47779;DHT22;33538;48.432;11.350;2024-02-21T05:37:19;6.00;94.80
47779;DHT22;33538;48.432;11.350;2024-02-21T05:39:46;5.90;94.80
47779;DHT22;33538;48.432;11.350;2024-02-21T05:42:13;5.90;94.90
47779;DHT22;33538;48.432;11.350;2024-02-21T05:44:39;6.00;95.00
47779;DHT22;33538;48.432;11.350;2024-02-21T05:47:06;5.90;95.00
47779;DHT22;33538;48.432;11.350;2024-02-21T05:49:34;5.80;95.10
47779;DHT22;33538;48.432;11.350;2024-02-21T05:52:01;5.80;95.40
47779;DHT22;33538;48.432;11.350;2024-02-21T05:54:28;5.80;95.20
47779;DHT22;33538;48.432;11.350;2024-02-21T05:56:55;5.70;95.10
47779;DHT22;33538;48.432;11.350;2024-02-21T05:59:22;5.70;95.40
47779;DHT22;33538;48.432;11.350;2024-02-21T06:01:55;5.70;95.20
47779;DHT22;33538;48.432;11.350;2024-02-21T06:04:22;5.70;95.20
47779;DHT22;33538;48.432;11.350;2024-02-21T06:06:50;5.80;95.20
47779;DHT22;33538;48.432;11.350;2024-02-21T06:09:17;5.80;95.20
47779;DHT22;33538;48.432;11.350;2024-02-21T06:11:44;5.80;95.00
47779;DHT22;33538;48.432;11.350;2024-02-21T06:14:12;5.80;94.80
47779;DHT22;33538;48.432;11.350;2024-02-21T06:16:39;5.90;94.60
47779;DHT22;33538;48.432;11.350;2024-02-21T06:19:06;5.90;94.60
47779;DHT22;33538;48.432;11.350;2024-02-21T06:21:36;5.90;94.40
47779;DHT22;33538;48.432;11.350;2024-02-21T06:24:05;5.90;94.40
47779;DHT22;33538;48.432;11.350;2024-02-21T06:26:32;5.90;94.40
47779;DHT22;33538;48.432;11.350;2024-02-21T06:28:58;5.90;94.30
47779;DHT22;33538;48.432;11.350;2024-02-21T06:31:25;5.90;94.20
47779;DHT22;33538;48.432;11.350;2024-02-21T06:33:52;5.90;94.20
47779;DHT22;33538;48.432;11.350;2024-02-21T06:36:19;5.90;94.40
47779;DHT22;33538;48.432;11.350;2024-02-21T06:38:46;5.80;94.60
47779;DHT22;33538;48.432;11.350;2024-02-21T06:41:18;5.60;95.20
47779;DHT22;33538;48.432;11.350;2024-02-21T06:43:45;5.60;95.70
47779;DHT22;33538;48.432;11.350;2024-02-21T06:46:12;5.60;95.70
47779;DHT22;33538;48.432;11.350;2024-02-21T06:48:38;5.70;95.40
47779;DHT22;33538;48.432;11.350;2024-02-21T06:51:08;5.70;95.30
47779;DHT22;33538;48.432;11.350;2024-02-21T06:53:35;5.80;95.30
47779;DHT22;33538;48.432;11.350;2024-02-21T06:56:02;5.80;95.40
47779;DHT22;33538;48.432;11.350;2024-02-21T06:58:31;5.80;95.30
47779;DHT22;33538;48.432;11.350;2024-02-21T07:00:57;5.90;95.30
47779;DHT22;33538;48.432;11.350;2024-02-21T07:03:24;5.90;95.10
47779;DHT22;33538;48.432;11.350;2024-02-21T07:05:51;6.00;95.10
47779;DHT22;33538;48.432;11.350;2024-02-21T07:08:18;6.00;95.00
47779;DHT22;33538;48.432;11.350;2024-02-21T07:10:45;6.00;94.90
47779;DHT22;33538;48.432;11.350;2024-02-21T07:13:12;6.00;94.70
47779;DHT22;33538;48.432;11.350;2024-02-21T07:15:40;6.10;94.60
47779;DHT22;33538;48.432;11.350;2024-02-21T07:18:07;6.10;94.50
47779;DHT22;33538;48.432;11.350;2024-02-21T07:20:34;6.10;94.40
47779;DHT22;33538;48.432;11.350;2024-02-21T07:23:01;6.10;94.30
47779;DHT22;33538;48.432;11.350;2024-02-21T07:25:28;6.20;94.30
47779;DHT22;33538;48.432;11.350;2024-02-21T07:27:55;6.20;94.30
47779;DHT22;33538;48.432;11.350;2024-02-21T07:30:22;6.20;94.30
47779;DHT22;33538;48.432;11.350;2024-02-21T07:32:50;6.20;94.20
47779;DHT22;33538;48.432;11.350;2024-02-21T07:35:18;6.20;94.10
47779;DHT22;33538;48.432;11.350;2024-02-21T07:37:45;6.20;94.10
47779;DHT22;33538;48.432;11.350;2024-02-21T07:40:13;6.20;94.00
47779;DHT22;33538;48.432;11.350;2024-02-21T07:42:40;6.20;94.00
47779;DHT22;33538;48.432;11.350;2024-02-21T07:45:07;6.10;93.90
47779;DHT22;33538;48.432;11.350;2024-02-21T07:47:34;6.10;94.10
47779;DHT22;33538;48.432;11.350;2024-02-21T07:50:03;6.10;94.10
47779;DHT22;33538;48.432;11.350;2024-02-21T07:52:29;6.10;94.20
47779;DHT22;33538;48.432;11.350;2024-02-21T07:54:56;6.10;94.20
47779;DHT22;33538;48.432;11.350;2024-02-21T07:57:23;6.10;94.20
47779;DHT22;33538;48.432;11.350;2024-02-21T07:59:50;6.10;94.20
47779;DHT22;33538;48.432;11.350;2024-02-21T08:02:17;6.20;94.00
47779;DHT22;33538;48.432;11.350;2024-02-21T08:04:44;6.20;93.90
47779;DHT22;33538;48.432;11.350;2024-02-21T08:07:12;6.20;93.90
47779;DHT22;33538;48.432;11.350;2024-02-21T08:09:39;6.20;93.80
47779;DHT22;33538;48.432;11.350;2024-02-21T08:12:06;6.20;93.70
47779;DHT22;33538;48.432;11.350;2024-02-21T08:14:33;6.30;93.80
47779;DHT22;33538;48.432;11.350;2024-02-21T08:17:00;6.30;93.70
47779;DHT22;33538;48.432;11.350;2024-02-21T08:19:27;6.30;93.70
47779;DHT22;33538;48.432;11.350;2024-02-21T08:21:54;6.30;93.70
47779;DHT22;33538;48.432;11.350;2024-02-21T08:24:22;6.30;93.60
47779;DHT22;33538;48.432;11.350;2024-02-21T08:26:49;6.30;93.60
47779;DHT22;33538;48.432;11.350;2024-02-21T08:29:16;6.30;93.60
47779;DHT22;33538;48.432;11.350;2024-02-21T08:31:43;6.40;93.60
47779;DHT22;33538;48.432;11.350;2024-02-21T08:34:09;6.40;93.60
47779;DHT22;33538;48.432;11.350;2024-02-21T08:36:36;6.40;93.50
47779;DHT22;33538;48.432;11.350;2024-02-21T08:39:04;6.40;93.60
47779;DHT22;33538;48.432;11.350;2024-02-21T08:41:32;6.50;93.50
47779;DHT22;33538;48.432;11.350;2024-02-21T08:44:17;6.40;93.50
47779;DHT22;33538;48.432;11.350;2024-02-21T08:46:44;6.50;93.60
47779;DHT22;33538;48.432;11.350;2024-02-21T08:49:11;6.50;93.60
47779;DHT22;33538;48.432;11.350;2024-02-21T08:51:38;6.50;93.70
47779;DHT22;33538;48.432;11.350;2024-02-21T08:54:05;6.50;93.70
47779;DHT22;33538;48.432;11.350;2024-02-21T08:56:33;6.50;93.80
47779;DHT22;33538;48.432;11.350;2024-02-21T08:59:00;6.50;93.80
47779;DHT22;33538;48.432;11.350;2024-02-21T09:01:27;6.50;93.80
47779;DHT22;33538;48.432;11.350;2024-02-21T09:03:54;6.50;93.80
47779;DHT22;33538;48.432;11.350;2024-02-21T09:06:21;6.50;93.80
47779;DHT22;33538;48.432;11.350;2024-02-21T09:08:48;6.60;93.90
47779;DHT22;33538;48.432;11.350;2024-02-21T09:11:15;6.60;93.80
47779;DHT22;33538;48.432;11.350;2024-02-21T09:13:43;6.60;93.90
47779;DHT22;33538;48.432;11.350;2024-02-21T09:16:10;6.60;93.90
47779;DHT22;33538;48.432;11.350;2024-02-21T09:18:37;6.60;93.80
47779;DHT22;33538;48.432;11.350;2024-02-21T09:21:04;6.60;93.80
47779;DHT22;33538;48.432;11.350;2024-02-21T09:23:31;6.70;93.90
47779;DHT22;33538;48.432;11.350;2024-02-21T09:25:58;6.70;93.90
47779;DHT22;33538;48.432;11.350;2024-02-21T09:28:24;6.70;93.90
47779;DHT22;33538;48.432;11.350;2024-02-21T09:30:53;6.70;94.00
47779;DHT22;33538;48.432;11.350;2024-02-21T09:33:20;6.70;94.00
47779;DHT22;33538;48.432;11.350;2024-02-21T09:35:58;6.80;94.10
47779;DHT22;33538;48.432;11.350;2024-02-21T09:38:24;6.70;94.10
47779;DHT22;33538;48.432;11.350;2024-02-21T09:40:58;6.80;94.20
47779;DHT22;33538;48.432;11.350;2024-02-21T09:43:25;6.80;94.20
47779;DHT22;33538;48.432;11.350;2024-02-21T09:45:55;6.80;94.20
47779;DHT22;33538;48.432;11.350;2024-02-21T09:48:29;6.80;94.20
47779;DHT22;33538;48.432;11.350;2024-02-21T09:51:02;6.80;94.30
47779;DHT22;33538;48.432;11.350;2024-02-21T09:53:31;6.90;94.40
47779;DHT22;33538;48.432;11.350;2024-02-21T09:55:59;6.90;94.40
47779;DHT22;33538;48.432;11.350;2024-02-21T09:58:26;6.90;94.40
47779;DHT22;33538;48.432;11.350;2024-02-21T10:00:55;6.90;94.40
47779;DHT22;33538;48.432;11.350;2024-02-21T10:03:21;7.00;94.50
47779;DHT22;33538;48.432;11.350;2024-02-21T10:05:49;7.00;94.50
47779;DHT22;33538;48.432;11.350;2024-02-21T10:08:16;7.00;94.40
47779;DHT22;33538;48.432;11.350;2024-02-21T10:10:43;7.00;94.30
47779;DHT22;33538;48.432;11.350;2024-02-21T10:13:11;7.00;94.40
47779;DHT22;33538;48.432;11.350;2024-02-21T10:15:37;7.00;94.50
47779;DHT22;33538;48.432;11.350;2024-02-21T10:18:06;7.10;94.60
47779;DHT22;33538;48.432;11.350;2024-02-21T10:20:33;7.10;94.70
47779;DHT22;33538;48.432;11.350;2024-02-21T10:23:03;7.10;94.70
47779;DHT22;33538;48.432;11.350;2024-02-21T10:25:30;7.10;94.80
47779;DHT22;33538;48.432;11.350;2024-02-21T10:27:57;7.10;94.90
47779;DHT22;33538;48.432;11.350;2024-02-21T10:30:24;7.10;95.00
47779;DHT22;33538;48.432;11.350;2024-02-21T10:32:51;7.20;95.10
47779;DHT22;33538;48.432;11.350;2024-02-21T10:35:27;7.20;95.10
47779;DHT22;33538;48.432;11.350;2024-02-21T10:37:54;7.20;95.10
47779;DHT22;33538;48.432;11.350;2024-02-21T10:40:26;7.20;95.20
47779;DHT22;33538;48.432;11.350;2024-02-21T10:42:57;7.20;95.20
47779;DHT22;33538;48.432;11.350;2024-02-21T10:45:29;7.30;95.20
47779;DHT22;33538;48.432;11.350;2024-02-21T10:48:01;7.30;95.40
47779;DHT22;33538;48.432;11.350;2024-02-21T10:50:32;7.30;95.30
47779;DHT22;33538;48.432;11.350;2024-02-21T10:53:09;7.30;95.40
47779;DHT22;33538;48.432;11.350;2024-02-21T10:55:47;7.30;95.30
47779;DHT22;33538;48.432;11.350;2024-02-21T10:58:17;7.40;95.30
47779;DHT22;33538;48.432;11.350;2024-02-21T11:00:45;7.40;95.40
47779;DHT22;33538;48.432;11.350;2024-02-21T11:03:12;7.40;95.40
47779;DHT22;33538;48.432;11.350;2024-02-21T11:05:41;7.40;95.40
47779;DHT22;33538;48.432;11.350;2024-02-21T11:08:08;7.40;95.50
47779;DHT22;33538;48.432;11.350;2024-02-21T11:10:36;7.40;95.70
47779;DHT22;33538;48.432;11.350;2024-02-21T11:13:07;7.50;95.70
47779;DHT22;33538;48.432;11.350;2024-02-21T11:15:34;7.50;95.60
47779;DHT22;33538;48.432;11.350;2024-02-21T11:18:01;7.40;95.80
47779;DHT22;33538;48.432;11.350;2024-02-21T11:20:35;7.50;95.90
47779;DHT22;33538;48.432;11.350;2024-02-21T11:23:03;7.50;95.80
47779;DHT22;33538;48.432;11.350;2024-02-21T11:25:31;7.50;95.80
47779;DHT22;33538;48.432;11.350;2024-02-21T11:28:01;7.60;95.90
47779;DHT22;33538;48.432;11.350;2024-02-21T11:30:30;7.60;95.90
47779;DHT22;33538;48.432;11.350;2024-02-21T11:33:01;7.60;96.00
47779;DHT22;33538;48.432;11.350;2024-02-21T11:35:31;7.60;95.90
47779;DHT22;33538;48.432;11.350;2024-02-21T11:38:12;7.60;96.00
47779;DHT22;33538;48.432;11.350;2024-02-21T11:40:39;7.60;96.00
47779;DHT22;33538;48.432;11.350;2024-02-21T11:43:06;7.60;96.00
47779;DHT22;33538;48.432;11.350;2024-02-21T11:45:33;7.60;96.20
47779;DHT22;33538;48.432;11.350;2024-02-21T11:48:00;7.60;96.00
47779;DHT22;33538;48.432;11.350;2024-02-21T11:50:27;7.60;95.90
47779;DHT22;33538;48.432;11.350;2024-02-21T11:52:54;7.60;96.00
47779;DHT22;33538;48.432;11.350;2024-02-21T11:55:23;7.70;96.20
47779;DHT22;33538;48.432;11.350;2024-02-21T11:57:51;7.70;96.20
47779;DHT22;33538;48.432;11.350;2024-02-21T12:00:19;7.70;96.40
47779;DHT22;33538;48.432;11.350;2024-02-21T12:02:46;7.70;96.40
47779;DHT22;33538;48.432;11.350;2024-02-21T12:05:13;7.70;96.10
47779;DHT22;33538;48.432;11.350;2024-02-21T12:07:40;7.70;96.20
47779;DHT22;33538;48.432;11.350;2024-02-21T12:10:08;7.80;96.10
47779;DHT22;33538;48.432;11.350;2024-02-21T12:12:37;7.80;96.10
47779;DHT22;33538;48.432;11.350;2024-02-21T12:15:04;7.80;96.10
47779;DHT22;33538;48.432;11.350;2024-02-21T12:17:32;7.80;96.40
47779;DHT22;33538;48.432;11.350;2024-02-21T12:19:59;7.80;96.20
47779;DHT22;33538;48.432;11.350;2024-02-21T12:22:26;7.90;96.20
47779;DHT22;33538;48.432;11.350;2024-02-21T12:24:53;7.90;96.20
47779;DHT22;33538;48.432;11.350;2024-02-21T12:27:20;7.90;96.10
47779;DHT22;33538;48.432;11.350;2024-02-21T12:29:48;8.00;96.20
47779;DHT22;33538;48.432;11.350;2024-02-21T12:32:15;8.00;96.20
47779;DHT22;33538;48.432;11.350;2024-02-21T12:34:42;8.00;96.00
47779;DHT22;33538;48.432;11.350;2024-02-21T12:37:21;8.00;95.90
47779;DHT22;33538;48.432;11.350;2024-02-21T12:39:48;8.00;96.10
47779;DHT22;33538;48.432;11.350;2024-02-21T12:42:15;8.10;96.00
47779;DHT22;33538;48.432;11.350;2024-02-21T12:44:42;8.00;95.80
47779;DHT22;33538;48.432;11.350;2024-02-21T12:47:11;8.10;96.00
47779;DHT22;33538;48.432;11.350;2024-02-21T12:49:38;8.10;96.00
47779;DHT22;33538;48.432;11.350;2024-02-21T12:52:11;8.10;95.90
47779;DHT22;33538;48.432;11.350;2024-02-21T12:54:38;8.10;96.00
47779;DHT22;33538;48.432;11.350;2024-02-21T12:57:05;8.10;96.00
47779;DHT22;33538;48.432;11.350;2024-02-21T12:59:32;8.20;96.20
47779;DHT22;33538;48.432;11.350;2024-02-21T13:01:59;8.10;96.00
47779;DHT22;33538;48.432;11.350;2024-02-21T13:04:27;8.20;96.00
47779;DHT22;33538;48.432;11.350;2024-02-21T13:06:54;8.20;96.00
47779;DHT22;33538;48.432;11.350;2024-02-21T13:09:21;8.20;96.60
47779;DHT22;33538;48.432;11.350;2024-02-21T13:11:48;8.20;96.20
47779;DHT22;33538;48.432;11.350;2024-02-21T13:14:15;8.20;96.30
47779;DHT22;33538;48.432;11.350;2024-02-21T13:16:41;8.20;96.40
47779;DHT22;33538;48.432;11.350;2024-02-21T13:19:08;8.20;96.30
47779;DHT22;33538;48.432;11.350;2024-02-21T13:21:37;8.20;96.10
47779;DHT22;33538;48.432;11.350;2024-02-21T13:24:04;8.30;96.30
47779;DHT22;33538;48.432;11.350;2024-02-21T13:26:31;8.20;96.20
47779;DHT22;33538;48.432;11.350;2024-02-21T13:28:58;8.30;96.10
47779;DHT22;33538;48.432;11.350;2024-02-21T13:31:25;8.20;96.20
47779;DHT22;33538;48.432;11.350;2024-02-21T13:33:51;8.30;96.30
47779;DHT22;33538;48.432;11.350;2024-02-21T13:36:18;8.30;96.30
47779;DHT22;33538;48.432;11.350;2024-02-21T13:38:46;8.30;96.50
47779;DHT22;33538;48.432;11.350;2024-02-21T13:41:13;8.30;96.30
47779;DHT22;33538;48.432;11.350;2024-02-21T13:43:40;8.30;96.60
47779;DHT22;33538;48.432;11.350;2024-02-21T13:46:08;8.40;96.40
47779;DHT22;33538;48.432;11.350;2024-02-21T13:48:35;8.40;96.30
47779;DHT22;33538;48.432;11.350;2024-02-21T13:51:03;8.40;96.30
47779;DHT22;33538;48.432;11.350;2024-02-21T13:53:30;8.40;96.40
47779;DHT22;33538;48.432;11.350;2024-02-21T13:55:58;8.40;96.40
47779;DHT22;33538;48.432;11.350;2024-02-21T13:58:25;8.40;96.30
47779;DHT22;33538;48.432;11.350;2024-02-21T14:00:52;8.40;96.30
47779;DHT22;33538;48.432;11.350;2024-02-21T14:03:19;8.40;96.40
47779;DHT22;33538;48.432;11.350;2024-02-21T14:05:46;8.40;96.50
47779;DHT22;33538;48.432;11.350;2024-02-21T14:08:13;8.40;96.60
47779;DHT22;33538;48.432;11.350;2024-02-21T14:10:40;8.40;96.50
47779;DHT22;33538;48.432;11.350;2024-02-21T14:13:08;8.40;96.40
47779;DHT22;33538;48.432;11.350;2024-02-21T14:15:35;8.40;96.60
47779;DHT22;33538;48.432;11.350;2024-02-21T14:18:02;8.40;96.50
47779;DHT22;33538;48.432;11.350;2024-02-21T14:20:29;8.50;96.50
47779;DHT22;33538;48.432;11.350;2024-02-21T14:22:56;8.50;96.50
47779;DHT22;33538;48.432;11.350;2024-02-21T14:25:23;8.50;96.70
47779;DHT22;33538;48.432;11.350;2024-02-21T14:27:50;8.40;96.60
47779;DHT22;33538;48.432;11.350;2024-02-21T14:30:18;8.40;96.60
47779;DHT22;33538;48.432;11.350;2024-02-21T14:32:45;8.50;96.80
47779;DHT22;33538;48.432;11.350;2024-02-21T14:35:12;8.50;96.90
47779;DHT22;33538;48.432;11.350;2024-02-21T14:37:39;8.50;96.90
47779;DHT22;33538;48.432;11.350;2024-02-21T14:40:07;8.50;96.90
47779;DHT22;33538;48.432;11.350;2024-02-21T14:42:34;8.50;96.90
47779;DHT22;33538;48.432;11.350;2024-02-21T14:45:01;8.50;97.00
47779;DHT22;33538;48.432;11.350;2024-02-21T14:47:29;8.50;97.00
47779;DHT22;33538;48.432;11.350;2024-02-21T14:49:56;8.50;97.10
47779;DHT22;33538;48.432;11.350;2024-02-21T14:52:23;8.50;97.00
47779;DHT22;33538;48.432;11.350;2024-02-21T14:54:50;8.50;97.10
47779;DHT22;33538;48.432;11.350;2024-02-21T14:57:17;8.50;97.20
47779;DHT22;33538;48.432;11.350;2024-02-21T14:59:43;8.60;97.20
47779;DHT22;33538;48.432;11.350;2024-02-21T15:02:10;8.50;97.20
47779;DHT22;33538;48.432;11.350;2024-02-21T15:04:39;8.60;97.20
47779;DHT22;33538;48.432;11.350;2024-02-21T15:07:05;8.60;97.20
47779;DHT22;33538;48.432;11.350;2024-02-21T15:09:32;8.60;97.10
47779;DHT22;33538;48.432;11.350;2024-02-21T15:11:59;8.60;97.20
47779;DHT22;33538;48.432;11.350;2024-02-21T15:14:26;8.60;97.20
47779;DHT22;33538;48.432;11.350;2024-02-21T15:16:53;8.60;97.30
47779;DHT22;33538;48.432;11.350;2024-02-21T15:19:20;8.60;97.30
47779;DHT22;33538;48.432;11.350;2024-02-21T15:21:48;8.60;97.40
47779;DHT22;33538;48.432;11.350;2024-02-21T15:24:15;8.60;97.40
47779;DHT22;33538;48.432;11.350;2024-02-21T15:26:42;8.60;97.40
47779;DHT22;33538;48.432;11.350;2024-02-21T15:29:09;8.60;97.40
47779;DHT22;33538;48.432;11.350;2024-02-21T15:31:37;8.60;97.40